sensor_id;sensor_type;location;lat;lon;timestamp;P1;durP1;ratioP1;P2;durP2;ratioP2
16828;SDS011;8531;48.078;11.968;2022-10-17T00:00:28;2.45;;;1.70;;
16828;SDS011;8531;48.078;11.968;2022-10-17T00:02:55;2.90;;;1.88;;
16828;SDS011;8531;48.078;11.968;2022-10-17T00:05:22;2.88;;;2.50;;
16828;SDS011;8531;48.078;11.968;2022-10-17T00:07:49;2.75;;;1.60;;
16828;SDS011;8531;48.078;11.968;2022-10-17T00:10:15;3.08;;;1.40;;
16828;SDS011;8531;48.078;11.968;2022-10-17T00:12:41;3.75;;;1.52;;
16828;SDS011;8531;48.078;11.968;2022-10-17T00:15:06;4.00;;;1.60;;
16828;SDS011;8531;48.078;11.968;2022-10-17T00:17:33;1.95;;;1.58;;
16828;SDS011;8531;48.078;11.968;2022-10-17T00:19:59;2.03;;;1.80;;
16828;SDS011;8531;48.078;11.968;2022-10-17T00:22:25;2.33;;;1.63;;
16828;SDS011;8531;48.078;11.968;2022-10-17T00:24:51;1.38;;;1.27;;
16828;SDS011;8531;48.078;11.968;2022-10-17T00:27:17;2.47;;;1.55;;
16828;SDS011;8531;48.078;11.968;2022-10-17T00:29:46;2.40;;;1.17;;
16828;SDS011;8531;48.078;11.968;2022-10-17T00:32:13;1.60;;;1.50;;
16828;SDS011;8531;48.078;11.968;2022-10-17T00:34:39;3.88;;;1.98;;
16828;SDS011;8531;48.078;11.968;2022-10-17T00:37:05;4.82;;;2.80;;
16828;SDS011;8531;48.078;11.968;2022-10-17T00:39:30;2.42;;;1.52;;
16828;SDS011;8531;48.078;11.968;2022-10-17T00:41:56;2.75;;;1.55;;
16828;SDS011;8531;48.078;11.968;2022-10-17T00:46:54;2.65;;;1.88;;
16828;SDS011;8531;48.078;11.968;2022-10-17T00:49:21;2.55;;;2.00;;
16828;SDS011;8531;48.078;11.968;2022-10-17T00:51:50;5.30;;;2.20;;
16828;SDS011;8531;48.078;11.968;2022-10-17T00:54:21;3.42;;;2.10;;
16828;SDS011;8531;48.078;11.968;2022-10-17T00:56:49;3.40;;;1.90;;
16828;SDS011;8531;48.078;11.968;2022-10-17T00:59:16;2.72;;;2.30;;
16828;SDS011;8531;48.078;11.968;2022-10-17T01:04:43;2.80;;;2.30;;
16828;SDS011;8531;48.078;11.968;2022-10-17T01:07:11;3.92;;;1.95;;
16828;SDS011;8531;48.078;11.968;2022-10-17T01:09:37;3.80;;;1.90;;
16828;SDS011;8531;48.078;11.968;2022-10-17T01:15:32;4.10;;;1.83;;
16828;SDS011;8531;48.078;11.968;2022-10-17T01:25:54;2.88;;;2.20;;
16828;SDS011;8531;48.078;11.968;2022-10-17T01:28:43;2.78;;;2.35;;
16828;SDS011;8531;48.078;11.968;2022-10-17T01:31:39;3.17;;;2.03;;
16828;SDS011;8531;48.078;11.968;2022-10-17T01:37:19;3.22;;;2.25;;
16828;SDS011;8531;48.078;11.968;2022-10-17T01:39:59;5.20;;;2.50;;
16828;SDS011;8531;48.078;11.968;2022-10-17T01:45:13;4.85;;;2.20;;
16828;SDS011;8531;48.078;11.968;2022-10-17T01:47:47;2.22;;;2.03;;
16828;SDS011;8531;48.078;11.968;2022-10-17T01:50:16;4.07;;;2.35;;
16828;SDS011;8531;48.078;11.968;2022-10-17T01:52:58;3.88;;;2.28;;
16828;SDS011;8531;48.078;11.968;2022-10-17T01:55:30;5.78;;;2.40;;
16828;SDS011;8531;48.078;11.968;2022-10-17T01:58:02;5.72;;;2.53;;
16828;SDS011;8531;48.078;11.968;2022-10-17T02:00:36;3.45;;;2.33;;
16828;SDS011;8531;48.078;11.968;2022-10-17T02:03:04;4.30;;;2.40;;
16828;SDS011;8531;48.078;11.968;2022-10-17T02:05:35;2.97;;;2.30;;
16828;SDS011;8531;48.078;11.968;2022-10-17T02:08:03;3.10;;;2.03;;
16828;SDS011;8531;48.078;11.968;2022-10-17T02:10:41;3.50;;;2.20;;
16828;SDS011;8531;48.078;11.968;2022-10-17T02:13:40;2.25;;;2.00;;
16828;SDS011;8531;48.078;11.968;2022-10-17T02:21:50;3.13;;;2.10;;
16828;SDS011;8531;48.078;11.968;2022-10-17T02:24:28;5.55;;;2.22;;
16828;SDS011;8531;48.078;11.968;2022-10-17T02:27:16;1.95;;;1.75;;
16828;SDS011;8531;48.078;11.968;2022-10-17T02:29:54;2.95;;;2.25;;
16828;SDS011;8531;48.078;11.968;2022-10-17T02:35:12;2.60;;;1.60;;
16828;SDS011;8531;48.078;11.968;2022-10-17T02:37:39;3.72;;;1.83;;
16828;SDS011;8531;48.078;11.968;2022-10-17T02:40:08;3.85;;;1.92;;
16828;SDS011;8531;48.078;11.968;2022-10-17T02:42:38;3.58;;;2.35;;
16828;SDS011;8531;48.078;11.968;2022-10-17T02:45:05;4.78;;;2.40;;
16828;SDS011;8531;48.078;11.968;2022-10-17T02:47:49;7.80;;;1.92;;
16828;SDS011;8531;48.078;11.968;2022-10-17T02:50:26;4.07;;;2.42;;
16828;SDS011;8531;48.078;11.968;2022-10-17T02:53:16;3.08;;;1.83;;
16828;SDS011;8531;48.078;11.968;2022-10-17T02:55:53;5.18;;;2.25;;
16828;SDS011;8531;48.078;11.968;2022-10-17T02:58:24;2.45;;;1.95;;
16828;SDS011;8531;48.078;11.968;2022-10-17T03:00:55;5.50;;;2.10;;
16828;SDS011;8531;48.078;11.968;2022-10-17T03:03:26;2.25;;;1.90;;
16828;SDS011;8531;48.078;11.968;2022-10-17T03:05:54;4.65;;;1.90;;
16828;SDS011;8531;48.078;11.968;2022-10-17T03:08:21;2.28;;;1.90;;
16828;SDS011;8531;48.078;11.968;2022-10-17T03:10:47;4.53;;;2.15;;
16828;SDS011;8531;48.078;11.968;2022-10-17T03:13:13;3.60;;;2.10;;
16828;SDS011;8531;48.078;11.968;2022-10-17T03:15:39;2.78;;;2.08;;
16828;SDS011;8531;48.078;11.968;2022-10-17T03:18:05;2.10;;;1.90;;
16828;SDS011;8531;48.078;11.968;2022-10-17T03:20:31;4.60;;;2.63;;
16828;SDS011;8531;48.078;11.968;2022-10-17T03:22:56;2.78;;;2.30;;
16828;SDS011;8531;48.078;11.968;2022-10-17T03:25:22;4.30;;;2.50;;
16828;SDS011;8531;48.078;11.968;2022-10-17T03:27:48;2.53;;;1.98;;
16828;SDS011;8531;48.078;11.968;2022-10-17T03:30:14;3.78;;;2.63;;
16828;SDS011;8531;48.078;11.968;2022-10-17T03:32:39;6.70;;;3.20;;
16828;SDS011;8531;48.078;11.968;2022-10-17T03:35:05;8.77;;;2.72;;
16828;SDS011;8531;48.078;11.968;2022-10-17T03:37:31;4.30;;;2.95;;
16828;SDS011;8531;48.078;11.968;2022-10-17T03:39:56;3.30;;;2.55;;
16828;SDS011;8531;48.078;11.968;2022-10-17T03:42:22;3.75;;;2.60;;
16828;SDS011;8531;48.078;11.968;2022-10-17T03:44:48;4.32;;;2.70;;
16828;SDS011;8531;48.078;11.968;2022-10-17T03:47:14;3.80;;;2.92;;
16828;SDS011;8531;48.078;11.968;2022-10-17T03:49:39;4.78;;;2.55;;
16828;SDS011;8531;48.078;11.968;2022-10-17T03:52:09;6.32;;;2.92;;
16828;SDS011;8531;48.078;11.968;2022-10-17T03:54:36;5.50;;;2.88;;
16828;SDS011;8531;48.078;11.968;2022-10-17T03:57:02;10.20;;;3.33;;
16828;SDS011;8531;48.078;11.968;2022-10-17T03:59:27;3.17;;;2.83;;
16828;SDS011;8531;48.078;11.968;2022-10-17T04:01:53;3.35;;;2.20;;
16828;SDS011;8531;48.078;11.968;2022-10-17T04:04:19;4.82;;;2.40;;
16828;SDS011;8531;48.078;11.968;2022-10-17T04:06:44;4.07;;;2.55;;
16828;SDS011;8531;48.078;11.968;2022-10-17T04:09:10;4.47;;;2.38;;
16828;SDS011;8531;48.078;11.968;2022-10-17T04:11:36;5.03;;;2.90;;
16828;SDS011;8531;48.078;11.968;2022-10-17T04:14:02;6.93;;;2.83;;
16828;SDS011;8531;48.078;11.968;2022-10-17T04:16:27;4.28;;;2.97;;
16828;SDS011;8531;48.078;11.968;2022-10-17T04:18:54;4.05;;;2.80;;
16828;SDS011;8531;48.078;11.968;2022-10-17T04:21:21;4.35;;;2.88;;
16828;SDS011;8531;48.078;11.968;2022-10-17T04:23:51;3.65;;;2.58;;
16828;SDS011;8531;48.078;11.968;2022-10-17T04:26:18;7.05;;;2.90;;
16828;SDS011;8531;48.078;11.968;2022-10-17T04:28:44;3.67;;;2.78;;
16828;SDS011;8531;48.078;11.968;2022-10-17T04:31:11;3.28;;;2.65;;
16828;SDS011;8531;48.078;11.968;2022-10-17T04:33:38;3.70;;;2.78;;
16828;SDS011;8531;48.078;11.968;2022-10-17T04:36:09;3.95;;;2.22;;
16828;SDS011;8531;48.078;11.968;2022-10-17T04:38:36;3.83;;;2.50;;
16828;SDS011;8531;48.078;11.968;2022-10-17T04:41:03;5.15;;;2.28;;
16828;SDS011;8531;48.078;11.968;2022-10-17T04:43:32;5.53;;;2.88;;
16828;SDS011;8531;48.078;11.968;2022-10-17T04:45:59;4.20;;;2.60;;
16828;SDS011;8531;48.078;11.968;2022-10-17T04:48:27;5.03;;;2.70;;
16828;SDS011;8531;48.078;11.968;2022-10-17T04:50:58;3.50;;;2.33;;
16828;SDS011;8531;48.078;11.968;2022-10-17T04:53:25;4.32;;;2.70;;
16828;SDS011;8531;48.078;11.968;2022-10-17T04:55:51;5.45;;;3.58;;
16828;SDS011;8531;48.078;11.968;2022-10-17T04:58:17;3.90;;;2.83;;
16828;SDS011;8531;48.078;11.968;2022-10-17T05:00:43;5.35;;;2.75;;
16828;SDS011;8531;48.078;11.968;2022-10-17T05:03:10;2.90;;;2.60;;
16828;SDS011;8531;48.078;11.968;2022-10-17T05:05:36;3.45;;;2.20;;
16828;SDS011;8531;48.078;11.968;2022-10-17T05:08:02;3.55;;;2.85;;
16828;SDS011;8531;48.078;11.968;2022-10-17T05:10:29;4.20;;;2.35;;
16828;SDS011;8531;48.078;11.968;2022-10-17T05:12:55;6.03;;;2.70;;
16828;SDS011;8531;48.078;11.968;2022-10-17T05:15:20;5.57;;;2.78;;
16828;SDS011;8531;48.078;11.968;2022-10-17T05:17:46;4.78;;;2.45;;
16828;SDS011;8531;48.078;11.968;2022-10-17T05:20:12;5.45;;;2.78;;
16828;SDS011;8531;48.078;11.968;2022-10-17T05:22:37;5.40;;;2.40;;
16828;SDS011;8531;48.078;11.968;2022-10-17T05:25:03;3.20;;;2.90;;
16828;SDS011;8531;48.078;11.968;2022-10-17T05:27:29;2.40;;;2.20;;
16828;SDS011;8531;48.078;11.968;2022-10-17T05:29:56;5.93;;;2.78;;
16828;SDS011;8531;48.078;11.968;2022-10-17T05:32:21;8.75;;;3.50;;
16828;SDS011;8531;48.078;11.968;2022-10-17T05:34:47;9.60;;;3.63;;
16828;SDS011;8531;48.078;11.968;2022-10-17T05:37:12;4.18;;;2.67;;
16828;SDS011;8531;48.078;11.968;2022-10-17T05:39:38;5.68;;;3.03;;
16828;SDS011;8531;48.078;11.968;2022-10-17T05:42:04;5.05;;;2.83;;
16828;SDS011;8531;48.078;11.968;2022-10-17T05:44:31;10.70;;;3.67;;
16828;SDS011;8531;48.078;11.968;2022-10-17T05:46:57;7.20;;;3.17;;
16828;SDS011;8531;48.078;11.968;2022-10-17T05:49:23;3.58;;;3.00;;
16828;SDS011;8531;48.078;11.968;2022-10-17T05:51:48;4.43;;;3.45;;
16828;SDS011;8531;48.078;11.968;2022-10-17T05:54:14;8.13;;;5.10;;
16828;SDS011;8531;48.078;11.968;2022-10-17T05:56:39;3.20;;;2.90;;
16828;SDS011;8531;48.078;11.968;2022-10-17T05:59:05;3.80;;;2.92;;
16828;SDS011;8531;48.078;11.968;2022-10-17T06:01:32;7.20;;;3.35;;
16828;SDS011;8531;48.078;11.968;2022-10-17T06:03:57;5.68;;;3.78;;
16828;SDS011;8531;48.078;11.968;2022-10-17T06:06:23;5.22;;;3.20;;
16828;SDS011;8531;48.078;11.968;2022-10-17T06:08:49;14.00;;;3.25;;
16828;SDS011;8531;48.078;11.968;2022-10-17T06:11:14;10.05;;;3.28;;
16828;SDS011;8531;48.078;11.968;2022-10-17T06:13:40;4.97;;;3.15;;
16828;SDS011;8531;48.078;11.968;2022-10-17T06:16:06;4.43;;;2.83;;
16828;SDS011;8531;48.078;11.968;2022-10-17T06:18:32;4.32;;;3.33;;
16828;SDS011;8531;48.078;11.968;2022-10-17T06:21:03;3.45;;;2.72;;
16828;SDS011;8531;48.078;11.968;2022-10-17T06:23:30;3.50;;;2.50;;
16828;SDS011;8531;48.078;11.968;2022-10-17T06:25:57;5.43;;;2.92;;
16828;SDS011;8531;48.078;11.968;2022-10-17T06:28:26;2.83;;;2.42;;
16828;SDS011;8531;48.078;11.968;2022-10-17T06:30:52;3.03;;;2.72;;
16828;SDS011;8531;48.078;11.968;2022-10-17T06:33:18;8.02;;;3.17;;
16828;SDS011;8531;48.078;11.968;2022-10-17T06:35:49;5.22;;;3.17;;
16828;SDS011;8531;48.078;11.968;2022-10-17T06:38:18;3.40;;;2.58;;
16828;SDS011;8531;48.078;11.968;2022-10-17T06:40:44;14.43;;;3.55;;
16828;SDS011;8531;48.078;11.968;2022-10-17T06:43:10;4.95;;;2.88;;
16828;SDS011;8531;48.078;11.968;2022-10-17T06:45:37;4.97;;;2.78;;
16828;SDS011;8531;48.078;11.968;2022-10-17T06:48:03;4.78;;;2.85;;
16828;SDS011;8531;48.078;11.968;2022-10-17T06:50:29;2.65;;;2.35;;
16828;SDS011;8531;48.078;11.968;2022-10-17T06:52:55;4.72;;;2.70;;
16828;SDS011;8531;48.078;11.968;2022-10-17T06:55:21;2.90;;;2.50;;
16828;SDS011;8531;48.078;11.968;2022-10-17T06:57:47;3.38;;;3.05;;
16828;SDS011;8531;48.078;11.968;2022-10-17T07:00:12;5.68;;;2.70;;
16828;SDS011;8531;48.078;11.968;2022-10-17T07:02:38;4.57;;;2.60;;
16828;SDS011;8531;48.078;11.968;2022-10-17T07:05:06;8.02;;;3.17;;
16828;SDS011;8531;48.078;11.968;2022-10-17T07:07:32;4.80;;;3.22;;
16828;SDS011;8531;48.078;11.968;2022-10-17T07:09:57;3.03;;;2.65;;
16828;SDS011;8531;48.078;11.968;2022-10-17T07:12:23;2.95;;;2.55;;
16828;SDS011;8531;48.078;11.968;2022-10-17T07:14:49;4.00;;;2.90;;
16828;SDS011;8531;48.078;11.968;2022-10-17T07:17:15;7.18;;;3.53;;
16828;SDS011;8531;48.078;11.968;2022-10-17T07:19:42;4.10;;;3.13;;
16828;SDS011;8531;48.078;11.968;2022-10-17T07:22:08;3.28;;;2.97;;
16828;SDS011;8531;48.078;11.968;2022-10-17T07:24:34;3.00;;;2.63;;
16828;SDS011;8531;48.078;11.968;2022-10-17T07:27:00;13.15;;;5.38;;
16828;SDS011;8531;48.078;11.968;2022-10-17T07:29:26;7.45;;;2.25;;
16828;SDS011;8531;48.078;11.968;2022-10-17T07:31:51;6.90;;;3.47;;
16828;SDS011;8531;48.078;11.968;2022-10-17T07:34:17;4.45;;;2.47;;
16828;SDS011;8531;48.078;11.968;2022-10-17T07:36:43;3.35;;;2.60;;
16828;SDS011;8531;48.078;11.968;2022-10-17T07:39:09;3.15;;;2.72;;
16828;SDS011;8531;48.078;11.968;2022-10-17T07:41:35;3.55;;;2.60;;
16828;SDS011;8531;48.078;11.968;2022-10-17T07:44:00;5.07;;;2.58;;
16828;SDS011;8531;48.078;11.968;2022-10-17T07:46:26;4.05;;;3.05;;
16828;SDS011;8531;48.078;11.968;2022-10-17T07:48:52;2.92;;;2.50;;
16828;SDS011;8531;48.078;11.968;2022-10-17T07:51:17;3.28;;;2.60;;
16828;SDS011;8531;48.078;11.968;2022-10-17T07:53:44;2.85;;;2.58;;
16828;SDS011;8531;48.078;11.968;2022-10-17T07:56:10;4.20;;;3.05;;
16828;SDS011;8531;48.078;11.968;2022-10-17T07:58:36;4.20;;;2.70;;
16828;SDS011;8531;48.078;11.968;2022-10-17T08:01:03;7.30;;;3.10;;
16828;SDS011;8531;48.078;11.968;2022-10-17T08:03:31;4.60;;;2.45;;
16828;SDS011;8531;48.078;11.968;2022-10-17T08:05:57;6.45;;;2.97;;
16828;SDS011;8531;48.078;11.968;2022-10-17T08:08:27;6.20;;;2.92;;
16828;SDS011;8531;48.078;11.968;2022-10-17T08:10:53;4.82;;;3.15;;
16828;SDS011;8531;48.078;11.968;2022-10-17T08:13:21;4.22;;;2.72;;
16828;SDS011;8531;48.078;11.968;2022-10-17T08:15:47;4.38;;;2.80;;
16828;SDS011;8531;48.078;11.968;2022-10-17T08:18:13;2.97;;;2.67;;
16828;SDS011;8531;48.078;11.968;2022-10-17T08:20:40;5.13;;;2.78;;
16828;SDS011;8531;48.078;11.968;2022-10-17T08:23:06;3.03;;;2.65;;
16828;SDS011;8531;48.078;11.968;2022-10-17T08:25:32;4.40;;;3.10;;
16828;SDS011;8531;48.078;11.968;2022-10-17T08:27:58;4.15;;;2.70;;
16828;SDS011;8531;48.078;11.968;2022-10-17T08:30:24;3.78;;;2.50;;
16828;SDS011;8531;48.078;11.968;2022-10-17T08:32:49;2.97;;;2.25;;
16828;SDS011;8531;48.078;11.968;2022-10-17T08:35:15;3.35;;;2.35;;
16828;SDS011;8531;48.078;11.968;2022-10-17T08:37:41;6.20;;;3.00;;
16828;SDS011;8531;48.078;11.968;2022-10-17T08:40:09;3.47;;;2.83;;
16828;SDS011;8531;48.078;11.968;2022-10-17T08:45:46;3.92;;;2.80;;
16828;SDS011;8531;48.078;11.968;2022-10-17T08:48:17;3.97;;;2.45;;
16828;SDS011;8531;48.078;11.968;2022-10-17T08:50:48;3.25;;;2.38;;
16828;SDS011;8531;48.078;11.968;2022-10-17T08:55:48;3.15;;;2.42;;
16828;SDS011;8531;48.078;11.968;2022-10-17T08:58:18;6.57;;;2.70;;
16828;SDS011;8531;48.078;11.968;2022-10-17T09:00:58;3.70;;;2.45;;
16828;SDS011;8531;48.078;11.968;2022-10-17T09:03:37;3.47;;;2.55;;
16828;SDS011;8531;48.078;11.968;2022-10-17T09:12:04;4.70;;;2.38;;
16828;SDS011;8531;48.078;11.968;2022-10-17T09:20:24;7.90;;;3.03;;
16828;SDS011;8531;48.078;11.968;2022-10-17T09:22:57;4.82;;;2.50;;
16828;SDS011;8531;48.078;11.968;2022-10-17T09:25:26;2.42;;;2.20;;
16828;SDS011;8531;48.078;11.968;2022-10-17T09:27:53;6.28;;;2.42;;
16828;SDS011;8531;48.078;11.968;2022-10-17T09:30:43;4.93;;;2.45;;
16828;SDS011;8531;48.078;11.968;2022-10-17T09:35:41;19.83;;;4.10;;
16828;SDS011;8531;48.078;11.968;2022-10-17T09:38:18;4.82;;;3.55;;
16828;SDS011;8531;48.078;11.968;2022-10-17T09:41:03;3.08;;;2.78;;
16828;SDS011;8531;48.078;11.968;2022-10-17T09:43:38;3.78;;;2.70;;
16828;SDS011;8531;48.078;11.968;2022-10-17T09:46:05;7.18;;;3.20;;
16828;SDS011;8531;48.078;11.968;2022-10-17T09:48:52;4.68;;;2.70;;
16828;SDS011;8531;48.078;11.968;2022-10-17T09:51:25;3.33;;;2.60;;
16828;SDS011;8531;48.078;11.968;2022-10-17T09:53:53;7.90;;;3.20;;
16828;SDS011;8531;48.078;11.968;2022-10-17T09:56:23;3.47;;;2.13;;
16828;SDS011;8531;48.078;11.968;2022-10-17T09:58:52;5.50;;;2.80;;
16828;SDS011;8531;48.078;11.968;2022-10-17T10:01:22;2.80;;;2.60;;
16828;SDS011;8531;48.078;11.968;2022-10-17T10:06:33;3.58;;;2.63;;
16828;SDS011;8531;48.078;11.968;2022-10-17T10:08:59;2.83;;;2.40;;
16828;SDS011;8531;48.078;11.968;2022-10-17T10:11:48;2.90;;;2.50;;
16828;SDS011;8531;48.078;11.968;2022-10-17T10:16:50;2.60;;;2.35;;
16828;SDS011;8531;48.078;11.968;2022-10-17T10:21:57;5.50;;;2.50;;
16828;SDS011;8531;48.078;11.968;2022-10-17T10:24:25;5.97;;;2.55;;
16828;SDS011;8531;48.078;11.968;2022-10-17T10:26:51;5.60;;;2.88;;
16828;SDS011;8531;48.078;11.968;2022-10-17T10:29:25;2.63;;;2.25;;
16828;SDS011;8531;48.078;11.968;2022-10-17T10:34:35;2.72;;;2.40;;
16828;SDS011;8531;48.078;11.968;2022-10-17T10:37:04;3.78;;;2.60;;
16828;SDS011;8531;48.078;11.968;2022-10-17T10:39:41;3.53;;;2.65;;
16828;SDS011;8531;48.078;11.968;2022-10-17T10:42:19;4.03;;;2.00;;
16828;SDS011;8531;48.078;11.968;2022-10-17T10:44:51;5.10;;;2.45;;
16828;SDS011;8531;48.078;11.968;2022-10-17T10:47:21;6.03;;;2.70;;
16828;SDS011;8531;48.078;11.968;2022-10-17T10:49:50;2.78;;;2.47;;
16828;SDS011;8531;48.078;11.968;2022-10-17T10:52:40;4.32;;;2.40;;
16828;SDS011;8531;48.078;11.968;2022-10-17T10:55:14;2.92;;;2.15;;
16828;SDS011;8531;48.078;11.968;2022-10-17T10:58:20;2.53;;;1.70;;
16828;SDS011;8531;48.078;11.968;2022-10-17T11:00:54;2.45;;;2.03;;
16828;SDS011;8531;48.078;11.968;2022-10-17T11:03:30;2.17;;;1.98;;
16828;SDS011;8531;48.078;11.968;2022-10-17T11:06:13;3.05;;;1.83;;
16828;SDS011;8531;48.078;11.968;2022-10-17T11:08:49;2.72;;;2.00;;
16828;SDS011;8531;48.078;11.968;2022-10-17T11:11:35;2.40;;;1.83;;
16828;SDS011;8531;48.078;11.968;2022-10-17T11:22:31;4.30;;;1.90;;
16828;SDS011;8531;48.078;11.968;2022-10-17T11:27:41;2.10;;;1.90;;
16828;SDS011;8531;48.078;11.968;2022-10-17T11:30:10;4.15;;;2.55;;
16828;SDS011;8531;48.078;11.968;2022-10-17T11:32:45;5.35;;;2.00;;
16828;SDS011;8531;48.078;11.968;2022-10-17T11:37:54;3.90;;;2.17;;
16828;SDS011;8531;48.078;11.968;2022-10-17T11:40:38;2.30;;;2.00;;
16828;SDS011;8531;48.078;11.968;2022-10-17T11:43:19;1.60;;;1.42;;
16828;SDS011;8531;48.078;11.968;2022-10-17T11:45:50;3.55;;;1.90;;
16828;SDS011;8531;48.078;11.968;2022-10-17T11:48:22;3.55;;;1.90;;
16828;SDS011;8531;48.078;11.968;2022-10-17T11:50:58;2.00;;;1.80;;
16828;SDS011;8531;48.078;11.968;2022-10-17T11:53:36;1.90;;;1.48;;
16828;SDS011;8531;48.078;11.968;2022-10-17T11:56:25;3.47;;;2.33;;
16828;SDS011;8531;48.078;11.968;2022-10-17T12:01:56;1.50;;;1.38;;
16828;SDS011;8531;48.078;11.968;2022-10-17T12:10:06;2.45;;;1.63;;
16828;SDS011;8531;48.078;11.968;2022-10-17T12:12:44;1.65;;;1.48;;
16828;SDS011;8531;48.078;11.968;2022-10-17T12:17:38;3.28;;;2.10;;
16828;SDS011;8531;48.078;11.968;2022-10-17T12:22:47;3.45;;;2.08;;
16828;SDS011;8531;48.078;11.968;2022-10-17T12:30:51;3.90;;;1.88;;
16828;SDS011;8531;48.078;11.968;2022-10-17T12:33:30;1.60;;;1.50;;
16828;SDS011;8531;48.078;11.968;2022-10-17T12:39:39;2.17;;;1.60;;
16828;SDS011;8531;48.078;11.968;2022-10-17T12:49:19;1.80;;;1.48;;
16828;SDS011;8531;48.078;11.968;2022-10-17T13:00:15;4.55;;;2.03;;
16828;SDS011;8531;48.078;11.968;2022-10-17T13:02:45;4.53;;;1.90;;
16828;SDS011;8531;48.078;11.968;2022-10-17T13:05:16;2.15;;;1.50;;
16828;SDS011;8531;48.078;11.968;2022-10-17T13:07:51;2.03;;;1.77;;
16828;SDS011;8531;48.078;11.968;2022-10-17T13:10:19;4.03;;;1.67;;
16828;SDS011;8531;48.078;11.968;2022-10-17T13:12:48;3.75;;;1.60;;
16828;SDS011;8531;48.078;11.968;2022-10-17T13:15:16;3.05;;;1.75;;
16828;SDS011;8531;48.078;11.968;2022-10-17T13:17:43;2.28;;;1.50;;
16828;SDS011;8531;48.078;11.968;2022-10-17T13:20:19;2.40;;;1.50;;
16828;SDS011;8531;48.078;11.968;2022-10-17T13:22:49;1.70;;;1.50;;
16828;SDS011;8531;48.078;11.968;2022-10-17T13:25:15;4.13;;;1.90;;
16828;SDS011;8531;48.078;11.968;2022-10-17T13:27:43;2.17;;;1.67;;
16828;SDS011;8531;48.078;11.968;2022-10-17T13:30:24;2.10;;;1.33;;
16828;SDS011;8531;48.078;11.968;2022-10-17T13:32:52;4.53;;;1.67;;
16828;SDS011;8531;48.078;11.968;2022-10-17T13:35:36;1.50;;;1.40;;
16828;SDS011;8531;48.078;11.968;2022-10-17T13:38:03;5.03;;;2.30;;
16828;SDS011;8531;48.078;11.968;2022-10-17T13:40:31;3.08;;;1.60;;
16828;SDS011;8531;48.078;11.968;2022-10-17T13:43:08;3.55;;;1.50;;
16828;SDS011;8531;48.078;11.968;2022-10-17T13:45:43;5.90;;;1.63;;
16828;SDS011;8531;48.078;11.968;2022-10-17T13:48:21;6.65;;;1.90;;
16828;SDS011;8531;48.078;11.968;2022-10-17T13:50:52;3.15;;;1.27;;
16828;SDS011;8531;48.078;11.968;2022-10-17T13:53:24;3.15;;;1.85;;
16828;SDS011;8531;48.078;11.968;2022-10-17T13:58:45;2.90;;;2.17;;
16828;SDS011;8531;48.078;11.968;2022-10-17T14:01:12;2.28;;;1.42;;
16828;SDS011;8531;48.078;11.968;2022-10-17T14:03:47;1.88;;;1.27;;
16828;SDS011;8531;48.078;11.968;2022-10-17T14:06:15;4.40;;;2.55;;
16828;SDS011;8531;48.078;11.968;2022-10-17T14:13:53;2.17;;;1.65;;
16828;SDS011;8531;48.078;11.968;2022-10-17T14:16:21;1.30;;;1.20;;
16828;SDS011;8531;48.078;11.968;2022-10-17T14:18:49;3.08;;;1.55;;
16828;SDS011;8531;48.078;11.968;2022-10-17T14:21:17;7.20;;;1.67;;
16828;SDS011;8531;48.078;11.968;2022-10-17T14:23:48;2.90;;;1.58;;
16828;SDS011;8531;48.078;11.968;2022-10-17T14:29:04;2.05;;;1.40;;
16828;SDS011;8531;48.078;11.968;2022-10-17T14:31:31;2.35;;;1.42;;
16828;SDS011;8531;48.078;11.968;2022-10-17T14:33:59;1.52;;;1.42;;
16828;SDS011;8531;48.078;11.968;2022-10-17T14:36:33;2.75;;;1.35;;
16828;SDS011;8531;48.078;11.968;2022-10-17T14:39:02;2.40;;;2.03;;
16828;SDS011;8531;48.078;11.968;2022-10-17T14:41:42;3.97;;;2.30;;
16828;SDS011;8531;48.078;11.968;2022-10-17T14:46:57;4.43;;;2.45;;
16828;SDS011;8531;48.078;11.968;2022-10-17T14:54:42;3.75;;;2.67;;
16828;SDS011;8531;48.078;11.968;2022-10-17T14:57:17;5.28;;;2.72;;
16828;SDS011;8531;48.078;11.968;2022-10-17T14:59:43;5.95;;;2.30;;
16828;SDS011;8531;48.078;11.968;2022-10-17T15:02:09;4.82;;;2.88;;
16828;SDS011;8531;48.078;11.968;2022-10-17T15:04:38;3.22;;;2.03;;
16828;SDS011;8531;48.078;11.968;2022-10-17T15:07:04;2.38;;;2.10;;
16828;SDS011;8531;48.078;11.968;2022-10-17T15:09:30;5.82;;;2.97;;
16828;SDS011;8531;48.078;11.968;2022-10-17T15:11:59;6.38;;;3.20;;
16828;SDS011;8531;48.078;11.968;2022-10-17T15:14:29;3.88;;;2.85;;
16828;SDS011;8531;48.078;11.968;2022-10-17T15:16:55;3.75;;;2.83;;
16828;SDS011;8531;48.078;11.968;2022-10-17T15:19:20;2.55;;;2.35;;
16828;SDS011;8531;48.078;11.968;2022-10-17T15:21:46;4.80;;;3.10;;
16828;SDS011;8531;48.078;11.968;2022-10-17T15:24:11;5.00;;;3.28;;
16828;SDS011;8531;48.078;11.968;2022-10-17T15:26:38;4.30;;;3.22;;
16828;SDS011;8531;48.078;11.968;2022-10-17T15:29:04;4.32;;;3.00;;
16828;SDS011;8531;48.078;11.968;2022-10-17T15:31:30;4.80;;;3.22;;
16828;SDS011;8531;48.078;11.968;2022-10-17T15:33:56;5.78;;;2.85;;
16828;SDS011;8531;48.078;11.968;2022-10-17T15:38:49;6.25;;;4.07;;
16828;SDS011;8531;48.078;11.968;2022-10-17T15:41:17;4.55;;;2.92;;
16828;SDS011;8531;48.078;11.968;2022-10-17T15:43:43;4.90;;;3.03;;
16828;SDS011;8531;48.078;11.968;2022-10-17T15:46:11;5.40;;;2.78;;
16828;SDS011;8531;48.078;11.968;2022-10-17T15:48:38;6.35;;;3.17;;
16828;SDS011;8531;48.078;11.968;2022-10-17T15:51:04;4.50;;;2.90;;
16828;SDS011;8531;48.078;11.968;2022-10-17T15:53:30;11.57;;;4.90;;
16828;SDS011;8531;48.078;11.968;2022-10-17T15:55:57;8.85;;;3.83;;
16828;SDS011;8531;48.078;11.968;2022-10-17T15:58:23;5.18;;;3.08;;
16828;SDS011;8531;48.078;11.968;2022-10-17T16:00:52;4.35;;;2.85;;
16828;SDS011;8531;48.078;11.968;2022-10-17T16:03:18;9.05;;;3.55;;
16828;SDS011;8531;48.078;11.968;2022-10-17T16:05:43;8.00;;;4.93;;
16828;SDS011;8531;48.078;11.968;2022-10-17T16:08:09;6.72;;;3.75;;
16828;SDS011;8531;48.078;11.968;2022-10-17T16:10:35;5.28;;;3.13;;
16828;SDS011;8531;48.078;11.968;2022-10-17T16:13:03;4.70;;;2.95;;
16828;SDS011;8531;48.078;11.968;2022-10-17T16:15:29;4.05;;;2.70;;
16828;SDS011;8531;48.078;11.968;2022-10-17T16:17:55;5.97;;;2.70;;
16828;SDS011;8531;48.078;11.968;2022-10-17T16:20:22;9.13;;;3.45;;
16828;SDS011;8531;48.078;11.968;2022-10-17T16:22:48;7.25;;;3.35;;
16828;SDS011;8531;48.078;11.968;2022-10-17T16:27:43;6.38;;;4.10;;
16828;SDS011;8531;48.078;11.968;2022-10-17T16:30:10;6.80;;;3.70;;
16828;SDS011;8531;48.078;11.968;2022-10-17T16:32:36;4.60;;;3.40;;
16828;SDS011;8531;48.078;11.968;2022-10-17T16:35:02;3.85;;;3.45;;
16828;SDS011;8531;48.078;11.968;2022-10-17T16:37:29;3.85;;;3.20;;
16828;SDS011;8531;48.078;11.968;2022-10-17T16:39:54;6.70;;;3.65;;
16828;SDS011;8531;48.078;11.968;2022-10-17T16:42:20;6.63;;;3.63;;
16828;SDS011;8531;48.078;11.968;2022-10-17T16:44:50;3.78;;;2.90;;
16828;SDS011;8531;48.078;11.968;2022-10-17T16:47:16;8.07;;;3.85;;
16828;SDS011;8531;48.078;11.968;2022-10-17T16:49:42;5.75;;;3.50;;
16828;SDS011;8531;48.078;11.968;2022-10-17T16:52:08;9.15;;;4.43;;
16828;SDS011;8531;48.078;11.968;2022-10-17T16:54:34;4.28;;;3.78;;
16828;SDS011;8531;48.078;11.968;2022-10-17T16:57:00;4.03;;;3.30;;
16828;SDS011;8531;48.078;11.968;2022-10-17T16:59:26;7.32;;;4.28;;
16828;SDS011;8531;48.078;11.968;2022-10-17T17:01:52;4.88;;;4.03;;
16828;SDS011;8531;48.078;11.968;2022-10-17T17:04:18;6.55;;;4.18;;
16828;SDS011;8531;48.078;11.968;2022-10-17T17:06:44;7.07;;;4.47;;
16828;SDS011;8531;48.078;11.968;2022-10-17T17:09:10;5.43;;;4.07;;
16828;SDS011;8531;48.078;11.968;2022-10-17T17:11:36;6.65;;;4.35;;
16828;SDS011;8531;48.078;11.968;2022-10-17T17:14:02;5.78;;;3.80;;
16828;SDS011;8531;48.078;11.968;2022-10-17T17:16:30;6.22;;;4.05;;